sensor_id;sensor_type;location;lat;lon;timestamp;temperature;humidity
5554;DHT22;2800;49.528;8.666;2024-02-15T00:00:20;11.40;99.90
5554;DHT22;2800;49.528;8.666;2024-02-15T00:02:47;11.40;99.90
5554;DHT22;2800;49.528;8.666;2024-02-15T00:05:13;11.40;99.90
5554;DHT22;2800;49.528;8.666;2024-02-15T00:07:40;11.40;99.90
5554;DHT22;2800;49.528;8.666;2024-02-15T00:10:05;11.40;99.90
5554;DHT22;2800;49.528;8.666;2024-02-15T00:12:32;11.40;99.90
5554;DHT22;2800;49.528;8.666;2024-02-15T00:14:57;11.70;99.90
5554;DHT22;2800;49.528;8.666;2024-02-15T00:17:24;11.50;99.90
5554;DHT22;2800;49.528;8.666;2024-02-15T00:19:50;11.50;99.90
5554;DHT22;2800;49.528;8.666;2024-02-15T00:22:16;11.50;99.90
5554;DHT22;2800;49.528;8.666;2024-02-15T00:24:41;11.50;99.90
5554;DHT22;2800;49.528;8.666;2024-02-15T00:27:10;11.50;99.90
5554;DHT22;2800;49.528;8.666;2024-02-15T00:29:36;11.40;99.90
5554;DHT22;2800;49.528;8.666;2024-02-15T00:32:02;11.50;99.90
5554;DHT22;2800;49.528;8.666;2024-02-15T00:34:29;11.50;99.90
5554;DHT22;2800;49.528;8.666;2024-02-15T00:36:54;11.40;99.90
5554;DHT22;2800;49.528;8.666;2024-02-15T00:39:20;11.40;99.90
5554;DHT22;2800;49.528;8.666;2024-02-15T00:41:46;11.50;99.90
5554;DHT22;2800;49.528;8.666;2024-02-15T00:44:12;11.50;99.90
5554;DHT22;2800;49.528;8.666;2024-02-15T00:46:38;11.50;99.90
5554;DHT22;2800;49.528;8.666;2024-02-15T00:49:04;11.50;99.90
5554;DHT22;2800;49.528;8.666;2024-02-15T00:51:32;11.50;99.90
5554;DHT22;2800;49.528;8.666;2024-02-15T00:53:58;11.40;99.90
5554;DHT22;2800;49.528;8.666;2024-02-15T00:56:24;11.40;99.90
5554;DHT22;2800;49.528;8.666;2024-02-15T00:58:50;11.50;99.90
5554;DHT22;2800;49.528;8.666;2024-02-15T01:01:15;11.50;99.90
5554;DHT22;2800;49.528;8.666;2024-02-15T01:03:40;11.50;99.90
5554;DHT22;2800;49.528;8.666;2024-02-15T01:06:06;11.50;99.90
5554;DHT22;2800;49.528;8.666;2024-02-15T01:08:32;11.50;99.90
5554;DHT22;2800;49.528;8.666;2024-02-15T01:10:58;11.50;99.90
5554;DHT22;2800;49.528;8.666;2024-02-15T01:13:24;11.50;99.90
5554;DHT22;2800;49.528;8.666;2024-02-15T01:15:50;11.50;99.90
5554;DHT22;2800;49.528;8.666;2024-02-15T01:18:15;11.50;99.90
5554;DHT22;2800;49.528;8.666;2024-02-15T01:20:41;11.50;99.90
5554;DHT22;2800;49.528;8.666;2024-02-15T01:23:06;11.50;99.90
5554;DHT22;2800;49.528;8.666;2024-02-15T01:25:33;11.60;99.90
5554;DHT22;2800;49.528;8.666;2024-02-15T01:27:58;11.60;99.90
5554;DHT22;2800;49.528;8.666;2024-02-15T01:30:24;11.60;99.90
5554;DHT22;2800;49.528;8.666;2024-02-15T01:32:49;11.70;99.90
5554;DHT22;2800;49.528;8.666;2024-02-15T01:35:15;11.70;99.90
5554;DHT22;2800;49.528;8.666;2024-02-15T01:37:40;11.70;99.90
5554;DHT22;2800;49.528;8.666;2024-02-15T01:40:06;11.70;99.90
5554;DHT22;2800;49.528;8.666;2024-02-15T01:42:32;11.80;99.90
5554;DHT22;2800;49.528;8.666;2024-02-15T01:44:58;11.80;99.90
5554;DHT22;2800;49.528;8.666;2024-02-15T01:47:23;11.70;99.90
5554;DHT22;2800;49.528;8.666;2024-02-15T01:49:50;11.70;99.90
5554;DHT22;2800;49.528;8.666;2024-02-15T01:52:16;11.70;99.90
5554;DHT22;2800;49.528;8.666;2024-02-15T01:54:43;11.70;99.90
5554;DHT22;2800;49.528;8.666;2024-02-15T01:57:08;11.70;99.90
5554;DHT22;2800;49.528;8.666;2024-02-15T01:59:34;11.70;99.90
5554;DHT22;2800;49.528;8.666;2024-02-15T02:02:02;11.70;99.90
5554;DHT22;2800;49.528;8.666;2024-02-15T02:04:27;11.70;99.90
5554;DHT22;2800;49.528;8.666;2024-02-15T02:06:53;11.70;99.90
5554;DHT22;2800;49.528;8.666;2024-02-15T02:09:24;11.70;99.90
5554;DHT22;2800;49.528;8.666;2024-02-15T02:11:50;11.70;99.90
5554;DHT22;2800;49.528;8.666;2024-02-15T02:14:16;11.60;99.90
5554;DHT22;2800;49.528;8.666;2024-02-15T02:16:41;11.60;99.90
5554;DHT22;2800;49.528;8.666;2024-02-15T02:19:07;11.60;99.90
5554;DHT22;2800;49.528;8.666;2024-02-15T02:21:34;11.60;99.90
5554;DHT22;2800;49.528;8.666;2024-02-15T02:24:03;11.50;99.90
5554;DHT22;2800;49.528;8.666;2024-02-15T02:26:34;11.50;99.90
5554;DHT22;2800;49.528;8.666;2024-02-15T02:29:02;11.50;99.90
5554;DHT22;2800;49.528;8.666;2024-02-15T02:31:35;11.50;99.90
5554;DHT22;2800;49.528;8.666;2024-02-15T02:34:01;11.50;99.90
5554;DHT22;2800;49.528;8.666;2024-02-15T02:36:26;11.40;99.90
5554;DHT22;2800;49.528;8.666;2024-02-15T02:38:53;11.40;99.90
5554;DHT22;2800;49.528;8.666;2024-02-15T02:41:18;11.40;99.90
5554;DHT22;2800;49.528;8.666;2024-02-15T02:43:48;11.30;99.90
5554;DHT22;2800;49.528;8.666;2024-02-15T02:46:14;11.30;99.90
5554;DHT22;2800;49.528;8.666;2024-02-15T02:48:39;11.20;99.90
5554;DHT22;2800;49.528;8.666;2024-02-15T02:51:07;11.10;99.90
5554;DHT22;2800;49.528;8.666;2024-02-15T02:53:33;11.10;99.90
5554;DHT22;2800;49.528;8.666;2024-02-15T02:55:58;11.10;99.90
5554;DHT22;2800;49.528;8.666;2024-02-15T02:58:24;11.10;99.90
5554;DHT22;2800;49.528;8.666;2024-02-15T03:00:50;11.10;99.90
5554;DHT22;2800;49.528;8.666;2024-02-15T03:03:17;11.10;99.90
5554;DHT22;2800;49.528;8.666;2024-02-15T03:05:44;11.00;99.90
5554;DHT22;2800;49.528;8.666;2024-02-15T03:08:10;11.00;99.90
5554;DHT22;2800;49.528;8.666;2024-02-15T03:10:37;11.00;99.90
5554;DHT22;2800;49.528;8.666;2024-02-15T03:13:03;11.00;99.90
5554;DHT22;2800;49.528;8.666;2024-02-15T03:15:30;11.10;99.90
5554;DHT22;2800;49.528;8.666;2024-02-15T03:17:55;11.10;99.90
5554;DHT22;2800;49.528;8.666;2024-02-15T03:20:21;11.10;99.90
5554;DHT22;2800;49.528;8.666;2024-02-15T03:22:53;11.00;99.90
5554;DHT22;2800;49.528;8.666;2024-02-15T03:25:19;11.00;99.90
5554;DHT22;2800;49.528;8.666;2024-02-15T03:27:45;10.90;99.90
5554;DHT22;2800;49.528;8.666;2024-02-15T03:30:11;10.90;99.90
5554;DHT22;2800;49.528;8.666;2024-02-15T03:32:37;10.90;99.90
5554;DHT22;2800;49.528;8.666;2024-02-15T03:35:03;10.80;99.90
5554;DHT22;2800;49.528;8.666;2024-02-15T03:37:28;10.80;99.90
5554;DHT22;2800;49.528;8.666;2024-02-15T03:39:54;10.80;99.90
5554;DHT22;2800;49.528;8.666;2024-02-15T03:42:20;10.80;99.90
5554;DHT22;2800;49.528;8.666;2024-02-15T03:44:46;10.80;99.90
5554;DHT22;2800;49.528;8.666;2024-02-15T03:47:13;10.70;99.90
5554;DHT22;2800;49.528;8.666;2024-02-15T03:49:40;10.80;99.90
5554;DHT22;2800;49.528;8.666;2024-02-15T03:52:08;10.80;99.90
5554;DHT22;2800;49.528;8.666;2024-02-15T03:54:35;10.80;99.90
5554;DHT22;2800;49.528;8.666;2024-02-15T03:57:01;10.80;99.90
5554;DHT22;2800;49.528;8.666;2024-02-15T03:59:26;10.70;99.90
5554;DHT22;2800;49.528;8.666;2024-02-15T04:01:55;10.70;99.90
5554;DHT22;2800;49.528;8.666;2024-02-15T04:04:22;10.80;99.90
5554;DHT22;2800;49.528;8.666;2024-02-15T04:06:51;10.80;99.90
5554;DHT22;2800;49.528;8.666;2024-02-15T04:09:19;10.80;99.90
5554;DHT22;2800;49.528;8.666;2024-02-15T04:11:46;10.80;99.90
5554;DHT22;2800;49.528;8.666;2024-02-15T04:14:16;10.80;99.90
5554;DHT22;2800;49.528;8.666;2024-02-15T04:16:41;10.80;99.90
5554;DHT22;2800;49.528;8.666;2024-02-15T04:19:07;10.70;99.90
5554;DHT22;2800;49.528;8.666;2024-02-15T04:21:32;10.80;99.90
5554;DHT22;2800;49.528;8.666;2024-02-15T04:23:58;10.90;99.90
5554;DHT22;2800;49.528;8.666;2024-02-15T04:26:24;10.80;99.90
5554;DHT22;2800;49.528;8.666;2024-02-15T04:28:55;10.80;99.90
5554;DHT22;2800;49.528;8.666;2024-02-15T04:31:21;10.80;99.90
5554;DHT22;2800;49.528;8.666;2024-02-15T04:33:55;10.90;99.90
5554;DHT22;2800;49.528;8.666;2024-02-15T04:36:21;10.90;99.90
5554;DHT22;2800;49.528;8.666;2024-02-15T04:38:51;11.00;99.90
5554;DHT22;2800;49.528;8.666;2024-02-15T04:41:20;11.10;99.90
5554;DHT22;2800;49.528;8.666;2024-02-15T04:43:51;11.30;99.90
5554;DHT22;2800;49.528;8.666;2024-02-15T04:46:18;11.20;99.90
5554;DHT22;2800;49.528;8.666;2024-02-15T04:48:47;11.20;99.90
5554;DHT22;2800;49.528;8.666;2024-02-15T04:51:14;11.30;99.90
5554;DHT22;2800;49.528;8.666;2024-02-15T04:53:40;11.30;99.90
5554;DHT22;2800;49.528;8.666;2024-02-15T04:56:06;11.30;99.90
5554;DHT22;2800;49.528;8.666;2024-02-15T04:58:39;11.30;99.90
5554;DHT22;2800;49.528;8.666;2024-02-15T05:01:15;11.30;99.90
5554;DHT22;2800;49.528;8.666;2024-02-15T05:03:44;11.30;99.90
5554;DHT22;2800;49.528;8.666;2024-02-15T05:06:10;11.30;99.90
5554;DHT22;2800;49.528;8.666;2024-02-15T05:08:38;11.20;99.90
5554;DHT22;2800;49.528;8.666;2024-02-15T05:11:12;11.10;99.90
5554;DHT22;2800;49.528;8.666;2024-02-15T05:13:43;11.00;99.90
5554;DHT22;2800;49.528;8.666;2024-02-15T05:16:10;11.10;99.90
5554;DHT22;2800;49.528;8.666;2024-02-15T05:18:36;11.20;99.90
5554;DHT22;2800;49.528;8.666;2024-02-15T05:21:03;11.20;99.90
5554;DHT22;2800;49.528;8.666;2024-02-15T05:23:29;11.30;99.90
5554;DHT22;2800;49.528;8.666;2024-02-15T05:25:55;11.30;99.90
5554;DHT22;2800;49.528;8.666;2024-02-15T05:28:21;11.30;99.90
5554;DHT22;2800;49.528;8.666;2024-02-15T05:31:08;11.30;99.90
5554;DHT22;2800;49.528;8.666;2024-02-15T05:33:34;11.40;99.90
5554;DHT22;2800;49.528;8.666;2024-02-15T05:35:59;11.40;99.90
5554;DHT22;2800;49.528;8.666;2024-02-15T05:38:25;11.30;99.90
5554;DHT22;2800;49.528;8.666;2024-02-15T05:40:50;11.30;99.90
5554;DHT22;2800;49.528;8.666;2024-02-15T05:43:16;11.20;99.90
5554;DHT22;2800;49.528;8.666;2024-02-15T05:45:42;11.20;99.90
5554;DHT22;2800;49.528;8.666;2024-02-15T05:48:09;11.10;99.90
5554;DHT22;2800;49.528;8.666;2024-02-15T05:50:37;11.10;99.90
5554;DHT22;2800;49.528;8.666;2024-02-15T05:53:03;11.10;99.90
5554;DHT22;2800;49.528;8.666;2024-02-15T05:55:29;11.10;99.90
5554;DHT22;2800;49.528;8.666;2024-02-15T05:57:56;11.20;99.90
5554;DHT22;2800;49.528;8.666;2024-02-15T06:00:22;11.30;99.90
5554;DHT22;2800;49.528;8.666;2024-02-15T06:02:47;11.30;99.90
5554;DHT22;2800;49.528;8.666;2024-02-15T06:05:14;11.30;99.90
5554;DHT22;2800;49.528;8.666;2024-02-15T06:07:42;11.20;99.90
5554;DHT22;2800;49.528;8.666;2024-02-15T06:10:08;11.20;99.90
5554;DHT22;2800;49.528;8.666;2024-02-15T06:12:33;11.20;99.90
5554;DHT22;2800;49.528;8.666;2024-02-15T06:14:59;11.20;99.90
5554;DHT22;2800;49.528;8.666;2024-02-15T06:17:24;11.20;99.90
5554;DHT22;2800;49.528;8.666;2024-02-15T06:19:50;11.20;99.90
5554;DHT22;2800;49.528;8.666;2024-02-15T06:22:15;11.20;99.90
5554;DHT22;2800;49.528;8.666;2024-02-15T06:24:41;11.20;99.90
5554;DHT22;2800;49.528;8.666;2024-02-15T06:27:07;11.30;99.90
5554;DHT22;2800;49.528;8.666;2024-02-15T06:29:32;11.40;99.90
5554;DHT22;2800;49.528;8.666;2024-02-15T06:32:16;11.40;99.90
5554;DHT22;2800;49.528;8.666;2024-02-15T06:35:00;11.40;99.90
5554;DHT22;2800;49.528;8.666;2024-02-15T06:37:44;11.50;99.90
5554;DHT22;2800;49.528;8.666;2024-02-15T06:40:28;11.40;99.90
5554;DHT22;2800;49.528;8.666;2024-02-15T06:42:56;11.50;99.90
5554;DHT22;2800;49.528;8.666;2024-02-15T06:45:21;11.50;99.90
5554;DHT22;2800;49.528;8.666;2024-02-15T06:47:47;11.70;99.90
5554;DHT22;2800;49.528;8.666;2024-02-15T06:50:13;11.70;99.90
5554;DHT22;2800;49.528;8.666;2024-02-15T06:52:39;11.60;99.90
5554;DHT22;2800;49.528;8.666;2024-02-15T06:55:09;11.60;99.90
5554;DHT22;2800;49.528;8.666;2024-02-15T06:57:37;11.60;99.90
5554;DHT22;2800;49.528;8.666;2024-02-15T07:00:06;11.70;99.90
5554;DHT22;2800;49.528;8.666;2024-02-15T07:02:35;11.70;99.90
5554;DHT22;2800;49.528;8.666;2024-02-15T07:05:00;11.70;99.90
5554;DHT22;2800;49.528;8.666;2024-02-15T07:07:26;11.70;99.90
5554;DHT22;2800;49.528;8.666;2024-02-15T07:09:51;11.70;99.90
5554;DHT22;2800;49.528;8.666;2024-02-15T07:12:18;11.70;99.90
5554;DHT22;2800;49.528;8.666;2024-02-15T07:14:45;11.70;99.90
5554;DHT22;2800;49.528;8.666;2024-02-15T07:17:12;11.70;99.90
5554;DHT22;2800;49.528;8.666;2024-02-15T07:19:43;11.70;99.90
5554;DHT22;2800;49.528;8.666;2024-02-15T07:22:09;11.70;99.90
5554;DHT22;2800;49.528;8.666;2024-02-15T07:24:35;11.70;99.90
5554;DHT22;2800;49.528;8.666;2024-02-15T07:27:04;11.80;99.90
5554;DHT22;2800;49.528;8.666;2024-02-15T07:29:29;11.80;99.90
5554;DHT22;2800;49.528;8.666;2024-02-15T07:31:57;11.80;99.90
5554;DHT22;2800;49.528;8.666;2024-02-15T07:34:23;11.80;99.90
5554;DHT22;2800;49.528;8.666;2024-02-15T07:36:50;11.80;99.90
5554;DHT22;2800;49.528;8.666;2024-02-15T07:39:15;11.80;99.90
5554;DHT22;2800;49.528;8.666;2024-02-15T07:41:48;11.90;99.90
5554;DHT22;2800;49.528;8.666;2024-02-15T07:44:15;11.90;99.90
5554;DHT22;2800;49.528;8.666;2024-02-15T07:46:41;11.90;99.90
5554;DHT22;2800;49.528;8.666;2024-02-15T07:49:07;12.00;99.90
5554;DHT22;2800;49.528;8.666;2024-02-15T07:51:33;12.00;99.90
5554;DHT22;2800;49.528;8.666;2024-02-15T07:53:59;12.00;99.90
5554;DHT22;2800;49.528;8.666;2024-02-15T07:56:26;12.10;99.90
5554;DHT22;2800;49.528;8.666;2024-02-15T07:58:52;12.10;99.90
5554;DHT22;2800;49.528;8.666;2024-02-15T08:01:18;12.20;99.90
5554;DHT22;2800;49.528;8.666;2024-02-15T08:03:47;12.20;99.90
5554;DHT22;2800;49.528;8.666;2024-02-15T08:06:14;12.10;99.90
5554;DHT22;2800;49.528;8.666;2024-02-15T08:08:41;12.20;99.90
5554;DHT22;2800;49.528;8.666;2024-02-15T08:11:08;12.20;99.90
5554;DHT22;2800;49.528;8.666;2024-02-15T08:13:50;12.10;99.90
5554;DHT22;2800;49.528;8.666;2024-02-15T08:16:18;12.20;99.90
5554;DHT22;2800;49.528;8.666;2024-02-15T08:18:44;12.20;99.90
5554;DHT22;2800;49.528;8.666;2024-02-15T08:21:11;12.20;99.90
5554;DHT22;2800;49.528;8.666;2024-02-15T08:23:36;12.20;99.90
5554;DHT22;2800;49.528;8.666;2024-02-15T08:26:02;12.20;99.90
5554;DHT22;2800;49.528;8.666;2024-02-15T08:28:28;12.20;99.90
5554;DHT22;2800;49.528;8.666;2024-02-15T08:30:54;12.20;99.90
5554;DHT22;2800;49.528;8.666;2024-02-15T08:33:21;12.20;99.90
5554;DHT22;2800;49.528;8.666;2024-02-15T08:35:47;12.20;99.90
5554;DHT22;2800;49.528;8.666;2024-02-15T08:38:12;12.20;99.90
5554;DHT22;2800;49.528;8.666;2024-02-15T08:40:38;12.20;99.90
5554;DHT22;2800;49.528;8.666;2024-02-15T08:43:03;12.30;99.90
5554;DHT22;2800;49.528;8.666;2024-02-15T08:45:29;12.30;99.90
5554;DHT22;2800;49.528;8.666;2024-02-15T08:47:55;12.40;99.90
5554;DHT22;2800;49.528;8.666;2024-02-15T08:50:20;12.40;99.90
5554;DHT22;2800;49.528;8.666;2024-02-15T08:52:48;12.40;99.90
5554;DHT22;2800;49.528;8.666;2024-02-15T08:55:14;12.80;99.90
5554;DHT22;2800;49.528;8.666;2024-02-15T08:57:40;13.10;99.90
5554;DHT22;2800;49.528;8.666;2024-02-15T09:00:07;13.40;99.90
5554;DHT22;2800;49.528;8.666;2024-02-15T09:02:43;13.60;99.90
5554;DHT22;2800;49.528;8.666;2024-02-15T09:05:08;13.90;99.90
5554;DHT22;2800;49.528;8.666;2024-02-15T09:07:34;14.30;99.90
5554;DHT22;2800;49.528;8.666;2024-02-15T09:10:02;14.20;99.90
5554;DHT22;2800;49.528;8.666;2024-02-15T09:12:28;14.00;99.90
5554;DHT22;2800;49.528;8.666;2024-02-15T09:14:53;14.00;99.90
5554;DHT22;2800;49.528;8.666;2024-02-15T09:17:19;14.00;99.90
5554;DHT22;2800;49.528;8.666;2024-02-15T09:19:47;13.80;99.90
5554;DHT22;2800;49.528;8.666;2024-02-15T09:22:15;14.20;99.90
5554;DHT22;2800;49.528;8.666;2024-02-15T09:24:40;14.50;99.90
5554;DHT22;2800;49.528;8.666;2024-02-15T09:27:07;14.60;99.90
5554;DHT22;2800;49.528;8.666;2024-02-15T09:29:33;14.60;99.90
5554;DHT22;2800;49.528;8.666;2024-02-15T09:31:59;14.60;99.90
5554;DHT22;2800;49.528;8.666;2024-02-15T09:34:27;14.80;99.90
5554;DHT22;2800;49.528;8.666;2024-02-15T09:36:53;15.00;99.90
5554;DHT22;2800;49.528;8.666;2024-02-15T09:39:18;15.10;99.90
5554;DHT22;2800;49.528;8.666;2024-02-15T09:41:44;15.20;99.90
5554;DHT22;2800;49.528;8.666;2024-02-15T09:44:10;15.50;99.90
5554;DHT22;2800;49.528;8.666;2024-02-15T09:46:37;15.60;99.90
5554;DHT22;2800;49.528;8.666;2024-02-15T09:49:06;15.20;99.90
5554;DHT22;2800;49.528;8.666;2024-02-15T09:51:33;15.30;99.90
5554;DHT22;2800;49.528;8.666;2024-02-15T09:53:59;16.10;99.90
5554;DHT22;2800;49.528;8.666;2024-02-15T09:56:26;16.00;99.90
5554;DHT22;2800;49.528;8.666;2024-02-15T09:58:54;15.90;99.90
5554;DHT22;2800;49.528;8.666;2024-02-15T10:01:23;16.00;99.90
5554;DHT22;2800;49.528;8.666;2024-02-15T10:03:49;16.40;99.90
5554;DHT22;2800;49.528;8.666;2024-02-15T10:06:19;16.30;99.90
5554;DHT22;2800;49.528;8.666;2024-02-15T10:08:45;16.60;99.90
5554;DHT22;2800;49.528;8.666;2024-02-15T10:11:12;16.90;99.90
5554;DHT22;2800;49.528;8.666;2024-02-15T10:13:38;17.30;99.90
5554;DHT22;2800;49.528;8.666;2024-02-15T10:18:39;18.00;99.90
5554;DHT22;2800;49.528;8.666;2024-02-15T10:21:05;18.00;99.90
5554;DHT22;2800;49.528;8.666;2024-02-15T10:23:30;18.20;99.90
5554;DHT22;2800;49.528;8.666;2024-02-15T10:25:56;17.90;99.90
5554;DHT22;2800;49.528;8.666;2024-02-15T10:28:23;18.20;99.90
5554;DHT22;2800;49.528;8.666;2024-02-15T10:30:49;18.20;99.90
5554;DHT22;2800;49.528;8.666;2024-02-15T10:33:28;18.00;99.90
5554;DHT22;2800;49.528;8.666;2024-02-15T10:36:09;17.30;99.90
5554;DHT22;2800;49.528;8.666;2024-02-15T10:38:36;17.40;99.90
5554;DHT22;2800;49.528;8.666;2024-02-15T10:41:06;17.50;99.90
5554;DHT22;2800;49.528;8.666;2024-02-15T10:43:35;17.40;99.90
5554;DHT22;2800;49.528;8.666;2024-02-15T10:46:03;17.50;99.90
5554;DHT22;2800;49.528;8.666;2024-02-15T10:48:29;17.60;99.90
5554;DHT22;2800;49.528;8.666;2024-02-15T10:50:57;17.40;99.90
5554;DHT22;2800;49.528;8.666;2024-02-15T10:53:27;17.40;99.90
5554;DHT22;2800;49.528;8.666;2024-02-15T10:58:43;16.90;99.90
5554;DHT22;2800;49.528;8.666;2024-02-15T11:01:12;17.30;99.90
5554;DHT22;2800;49.528;8.666;2024-02-15T11:03:50;16.70;99.90
5554;DHT22;2800;49.528;8.666;2024-02-15T11:06:21;16.70;99.90
5554;DHT22;2800;49.528;8.666;2024-02-15T11:08:50;16.60;99.90
5554;DHT22;2800;49.528;8.666;2024-02-15T11:11:15;16.70;99.90
5554;DHT22;2800;49.528;8.666;2024-02-15T11:13:41;16.60;99.90
5554;DHT22;2800;49.528;8.666;2024-02-15T11:16:10;17.00;99.90
5554;DHT22;2800;49.528;8.666;2024-02-15T11:18:43;17.10;99.90
5554;DHT22;2800;49.528;8.666;2024-02-15T11:21:10;17.60;99.90
5554;DHT22;2800;49.528;8.666;2024-02-15T11:23:35;17.60;99.90
5554;DHT22;2800;49.528;8.666;2024-02-15T11:26:01;17.40;99.90
5554;DHT22;2800;49.528;8.666;2024-02-15T11:28:36;17.70;99.90
5554;DHT22;2800;49.528;8.666;2024-02-15T11:31:02;17.80;99.90
5554;DHT22;2800;49.528;8.666;2024-02-15T11:33:32;18.40;99.90
5554;DHT22;2800;49.528;8.666;2024-02-15T11:36:13;18.20;99.90
5554;DHT22;2800;49.528;8.666;2024-02-15T11:38:40;18.50;99.90
5554;DHT22;2800;49.528;8.666;2024-02-15T11:41:07;18.60;99.90
5554;DHT22;2800;49.528;8.666;2024-02-15T11:43:48;18.30;99.90
5554;DHT22;2800;49.528;8.666;2024-02-15T11:46:25;18.40;99.90
5554;DHT22;2800;49.528;8.666;2024-02-15T11:48:52;18.10;99.90
5554;DHT22;2800;49.528;8.666;2024-02-15T11:51:35;18.40;99.90
5554;DHT22;2800;49.528;8.666;2024-02-15T11:54:11;17.70;99.90
5554;DHT22;2800;49.528;8.666;2024-02-15T11:59:08;17.90;99.90
5554;DHT22;2800;49.528;8.666;2024-02-15T12:01:38;18.10;99.90
5554;DHT22;2800;49.528;8.666;2024-02-15T12:04:22;18.50;99.90
5554;DHT22;2800;49.528;8.666;2024-02-15T12:07:06;18.70;99.90
5554;DHT22;2800;49.528;8.666;2024-02-15T12:09:58;18.10;99.90
5554;DHT22;2800;49.528;8.666;2024-02-15T12:12:51;17.90;99.90
5554;DHT22;2800;49.528;8.666;2024-02-15T12:15:35;17.70;99.90
5554;DHT22;2800;49.528;8.666;2024-02-15T12:18:19;17.30;99.90
5554;DHT22;2800;49.528;8.666;2024-02-15T12:21:04;17.80;99.90
5554;DHT22;2800;49.528;8.666;2024-02-15T12:23:31;18.00;99.90
5554;DHT22;2800;49.528;8.666;2024-02-15T12:26:00;17.70;99.90
5554;DHT22;2800;49.528;8.666;2024-02-15T12:28:25;17.70;99.90
5554;DHT22;2800;49.528;8.666;2024-02-15T12:30:55;17.80;99.90
5554;DHT22;2800;49.528;8.666;2024-02-15T12:33:24;17.60;99.90
5554;DHT22;2800;49.528;8.666;2024-02-15T12:35:50;17.40;99.90
5554;DHT22;2800;49.528;8.666;2024-02-15T12:38:16;17.30;99.90
5554;DHT22;2800;49.528;8.666;2024-02-15T12:40:42;17.00;99.90
5554;DHT22;2800;49.528;8.666;2024-02-15T12:43:08;16.90;99.90
5554;DHT22;2800;49.528;8.666;2024-02-15T12:45:38;16.70;99.90
5554;DHT22;2800;49.528;8.666;2024-02-15T12:48:05;16.80;99.90
5554;DHT22;2800;49.528;8.666;2024-02-15T12:50:31;16.90;99.90
5554;DHT22;2800;49.528;8.666;2024-02-15T12:52:57;17.00;99.90
5554;DHT22;2800;49.528;8.666;2024-02-15T12:55:29;17.20;99.90
5554;DHT22;2800;49.528;8.666;2024-02-15T12:58:00;17.30;99.90
5554;DHT22;2800;49.528;8.666;2024-02-15T13:00:32;17.30;99.90
5554;DHT22;2800;49.528;8.666;2024-02-15T13:02:59;17.30;99.90
5554;DHT22;2800;49.528;8.666;2024-02-15T13:05:26;17.00;99.90
5554;DHT22;2800;49.528;8.666;2024-02-15T13:07:53;16.90;99.90
5554;DHT22;2800;49.528;8.666;2024-02-15T13:10:21;17.00;99.90
5554;DHT22;2800;49.528;8.666;2024-02-15T13:12:47;16.90;99.90
5554;DHT22;2800;49.528;8.666;2024-02-15T13:15:14;16.90;99.90
5554;DHT22;2800;49.528;8.666;2024-02-15T13:17:43;17.00;99.90
5554;DHT22;2800;49.528;8.666;2024-02-15T13:20:10;17.00;99.90
5554;DHT22;2800;49.528;8.666;2024-02-15T13:22:42;17.10;99.90
5554;DHT22;2800;49.528;8.666;2024-02-15T13:25:13;17.00;99.90
5554;DHT22;2800;49.528;8.666;2024-02-15T13:27:42;16.80;99.90
5554;DHT22;2800;49.528;8.666;2024-02-15T13:30:09;16.60;99.90
5554;DHT22;2800;49.528;8.666;2024-02-15T13:32:36;16.60;99.90
5554;DHT22;2800;49.528;8.666;2024-02-15T13:35:04;16.70;99.90
5554;DHT22;2800;49.528;8.666;2024-02-15T13:37:42;16.60;99.90
5554;DHT22;2800;49.528;8.666;2024-02-15T13:40:10;16.50;99.90
5554;DHT22;2800;49.528;8.666;2024-02-15T13:42:43;16.40;99.90
5554;DHT22;2800;49.528;8.666;2024-02-15T13:45:18;16.30;99.90
5554;DHT22;2800;49.528;8.666;2024-02-15T13:47:45;16.30;99.90
5554;DHT22;2800;49.528;8.666;2024-02-15T13:50:12;16.30;99.90
5554;DHT22;2800;49.528;8.666;2024-02-15T13:52:43;16.30;99.90
5554;DHT22;2800;49.528;8.666;2024-02-15T13:55:10;16.30;99.90
5554;DHT22;2800;49.528;8.666;2024-02-15T13:57:37;16.30;99.90
5554;DHT22;2800;49.528;8.666;2024-02-15T14:00:03;16.30;99.90
5554;DHT22;2800;49.528;8.666;2024-02-15T14:02:31;16.20;99.90
5554;DHT22;2800;49.528;8.666;2024-02-15T14:04:56;16.20;99.90
5554;DHT22;2800;49.528;8.666;2024-02-15T14:07:22;16.20;99.90
5554;DHT22;2800;49.528;8.666;2024-02-15T14:09:47;16.20;99.90
5554;DHT22;2800;49.528;8.666;2024-02-15T14:12:13;16.20;99.90
5554;DHT22;2800;49.528;8.666;2024-02-15T14:14:40;16.10;99.90
5554;DHT22;2800;49.528;8.666;2024-02-15T14:17:05;16.20;99.90
5554;DHT22;2800;49.528;8.666;2024-02-15T14:19:31;16.20;99.90
5554;DHT22;2800;49.528;8.666;2024-02-15T14:21:56;16.20;99.90
5554;DHT22;2800;49.528;8.666;2024-02-15T14:24:22;16.10;99.90
5554;DHT22;2800;49.528;8.666;2024-02-15T14:26:48;16.10;99.90
5554;DHT22;2800;49.528;8.666;2024-02-15T14:29:14;16.10;99.90
5554;DHT22;2800;49.528;8.666;2024-02-15T14:31:40;16.10;99.90
5554;DHT22;2800;49.528;8.666;2024-02-15T14:34:24;16.00;99.90
5554;DHT22;2800;49.528;8.666;2024-02-15T14:36:51;16.10;99.90
5554;DHT22;2800;49.528;8.666;2024-02-15T14:39:16;16.10;99.90
5554;DHT22;2800;49.528;8.666;2024-02-15T14:41:42;16.10;99.90
5554;DHT22;2800;49.528;8.666;2024-02-15T14:44:09;16.00;99.90
5554;DHT22;2800;49.528;8.666;2024-02-15T14:46:35;16.00;99.90
5554;DHT22;2800;49.528;8.666;2024-02-15T14:49:01;16.00;99.90
5554;DHT22;2800;49.528;8.666;2024-02-15T14:51:28;15.90;99.90
5554;DHT22;2800;49.528;8.666;2024-02-15T14:53:54;15.90;99.90
5554;DHT22;2800;49.528;8.666;2024-02-15T14:56:19;15.80;99.90
5554;DHT22;2800;49.528;8.666;2024-02-15T14:58:45;15.80;99.90
5554;DHT22;2800;49.528;8.666;2024-02-15T15:01:10;15.80;99.90
5554;DHT22;2800;49.528;8.666;2024-02-15T15:03:38;15.70;99.90
5554;DHT22;2800;49.528;8.666;2024-02-15T15:06:04;15.60;99.90
5554;DHT22;2800;49.528;8.666;2024-02-15T15:08:50;15.60;99.90
5554;DHT22;2800;49.528;8.666;2024-02-15T15:11:34;15.70;99.90
5554;DHT22;2800;49.528;8.666;2024-02-15T15:14:18;15.60;99.90
5554;DHT22;2800;49.528;8.666;2024-02-15T15:16:44;15.60;99.90
5554;DHT22;2800;49.528;8.666;2024-02-15T15:19:10;15.60;99.90
5554;DHT22;2800;49.528;8.666;2024-02-15T15:21:36;15.50;99.90
5554;DHT22;2800;49.528;8.666;2024-02-15T15:24:01;15.50;99.90
5554;DHT22;2800;49.528;8.666;2024-02-15T15:26:27;15.50;99.90
5554;DHT22;2800;49.528;8.666;2024-02-15T15:28:52;15.50;99.90
5554;DHT22;2800;49.528;8.666;2024-02-15T15:31:20;15.40;99.90
5554;DHT22;2800;49.528;8.666;2024-02-15T15:33:46;15.40;99.90
5554;DHT22;2800;49.528;8.666;2024-02-15T15:36:13;15.30;99.90
5554;DHT22;2800;49.528;8.666;2024-02-15T15:38:41;15.30;99.90
5554;DHT22;2800;49.528;8.666;2024-02-15T15:41:07;15.30;99.90
5554;DHT22;2800;49.528;8.666;2024-02-15T15:43:34;15.30;99.90
5554;DHT22;2800;49.528;8.666;2024-02-15T15:46:00;15.20;99.90
5554;DHT22;2800;49.528;8.666;2024-02-15T15:48:26;15.20;99.90
5554;DHT22;2800;49.528;8.666;2024-02-15T15:50:51;15.20;99.90
5554;DHT22;2800;49.528;8.666;2024-02-15T15:53:19;15.10;99.90
5554;DHT22;2800;49.528;8.666;2024-02-15T15:55:44;15.10;99.90
5554;DHT22;2800;49.528;8.666;2024-02-15T15:58:11;15.10;99.90
5554;DHT22;2800;49.528;8.666;2024-02-15T16:00:37;15.10;99.90
5554;DHT22;2800;49.528;8.666;2024-02-15T16:03:03;15.00;99.90
5554;DHT22;2800;49.528;8.666;2024-02-15T16:05:30;15.00;99.90
5554;DHT22;2800;49.528;8.666;2024-02-15T16:07:56;15.00;99.90
5554;DHT22;2800;49.528;8.666;2024-02-15T16:10:21;15.00;99.90
5554;DHT22;2800;49.528;8.666;2024-02-15T16:12:51;15.00;99.90